sensor_id;sensor_type;location;lat;lon;timestamp;pressure;altitude;pressure_sealevel;temperature;humidity
47738;BME280;33502;47.182;27.506;2023-03-01T00:02:04;101489.63;;;-0.62;100.00
47738;BME280;33502;47.182;27.506;2023-03-01T00:04:30;101489.34;;;-0.75;100.00
47738;BME280;33502;47.182;27.506;2023-03-01T00:06:56;101481.31;;;-0.85;100.00
47738;BME280;33502;47.182;27.506;2023-03-01T00:09:22;101483.72;;;-0.94;100.00
47738;BME280;33502;47.182;27.506;2023-03-01T00:11:48;101484.41;;;-1.03;100.00
47738;BME280;33502;47.182;27.506;2023-03-01T00:14:14;101484.13;;;-1.13;100.00
47738;BME280;33502;47.182;27.506;2023-03-01T00:16:43;101484.91;;;-1.17;100.00
47738;BME280;33502;47.182;27.506;2023-03-01T00:19:15;101479.63;;;-1.21;100.00
47738;BME280;33502;47.182;27.506;2023-03-01T00:21:41;101480.53;;;-1.19;100.00
47738;BME280;33502;47.182;27.506;2023-03-01T00:24:08;101478.94;;;-1.13;100.00
47738;BME280;33502;47.182;27.506;2023-03-01T00:26:34;101469.59;;;-1.05;100.00
47738;BME280;33502;47.182;27.506;2023-03-01T00:29:00;101479.28;;;-0.98;100.00
47738;BME280;33502;47.182;27.506;2023-03-01T00:31:28;101473.31;;;-0.95;100.00
47738;BME280;33502;47.182;27.506;2023-03-01T00:33:56;101470.75;;;-0.92;100.00
47738;BME280;33502;47.182;27.506;2023-03-01T00:36:24;101480.31;;;-0.91;100.00
47738;BME280;33502;47.182;27.506;2023-03-01T00:38:50;101471.63;;;-0.92;100.00
47738;BME280;33502;47.182;27.506;2023-03-01T00:41:17;101458.63;;;-0.92;100.00
47738;BME280;33502;47.182;27.506;2023-03-01T00:43:44;101463.88;;;-0.90;100.00
47738;BME280;33502;47.182;27.506;2023-03-01T00:46:18;101462.16;;;-0.90;100.00
47738;BME280;33502;47.182;27.506;2023-03-01T00:48:45;101461.31;;;-0.89;100.00
47738;BME280;33502;47.182;27.506;2023-03-01T00:51:20;101456.16;;;-0.87;100.00
47738;BME280;33502;47.182;27.506;2023-03-01T00:53:47;101456.19;;;-0.84;100.00
47738;BME280;33502;47.182;27.506;2023-03-01T00:56:15;101446.66;;;-0.85;100.00
47738;BME280;33502;47.182;27.506;2023-03-01T00:58:43;101444.06;;;-0.85;100.00
47738;BME280;33502;47.182;27.506;2023-03-01T01:01:18;101444.88;;;-0.86;100.00
47738;BME280;33502;47.182;27.506;2023-03-01T01:03:48;101436.25;;;-0.85;100.00
47738;BME280;33502;47.182;27.506;2023-03-01T01:06:19;101431.88;;;-0.86;100.00
47738;BME280;33502;47.182;27.506;2023-03-01T01:08:45;101433.59;;;-0.87;100.00
47738;BME280;33502;47.182;27.506;2023-03-01T01:11:12;101430.97;;;-0.88;100.00
47738;BME280;33502;47.182;27.506;2023-03-01T01:13:39;101429.97;;;-0.95;100.00
47738;BME280;33502;47.182;27.506;2023-03-01T01:16:07;101414.25;;;-1.01;100.00
47738;BME280;33502;47.182;27.506;2023-03-01T01:18:34;101410.69;;;-1.05;100.00
47738;BME280;33502;47.182;27.506;2023-03-01T01:21:12;101413.22;;;-1.08;100.00
47738;BME280;33502;47.182;27.506;2023-03-01T01:23:39;101419.41;;;-1.03;100.00
47738;BME280;33502;47.182;27.506;2023-03-01T01:26:14;101407.22;;;-1.04;100.00
47738;BME280;33502;47.182;27.506;2023-03-01T01:28:40;101406.31;;;-1.06;100.00
47738;BME280;33502;47.182;27.506;2023-03-01T01:31:06;101406.28;;;-1.09;100.00
47738;BME280;33502;47.182;27.506;2023-03-01T01:33:32;101401.88;;;-1.11;100.00
47738;BME280;33502;47.182;27.506;2023-03-01T01:35:58;101396.63;;;-1.14;100.00
47738;BME280;33502;47.182;27.506;2023-03-01T01:38:24;101402.72;;;-1.11;100.00
47738;BME280;33502;47.182;27.506;2023-03-01T01:40:51;101401.03;;;-1.10;100.00
47738;BME280;33502;47.182;27.506;2023-03-01T01:43:23;101399.22;;;-1.14;100.00
47738;BME280;33502;47.182;27.506;2023-03-01T01:45:49;101390.47;;;-1.18;100.00
47738;BME280;33502;47.182;27.506;2023-03-01T01:48:22;101385.97;;;-1.25;100.00
47738;BME280;33502;47.182;27.506;2023-03-01T01:50:59;101381.50;;;-1.31;100.00
47738;BME280;33502;47.182;27.506;2023-03-01T01:53:26;101369.25;;;-1.36;100.00
47738;BME280;33502;47.182;27.506;2023-03-01T01:55:56;101370.78;;;-1.46;100.00
47738;BME280;33502;47.182;27.506;2023-03-01T01:58:26;101375.84;;;-1.52;100.00
47738;BME280;33502;47.182;27.506;2023-03-01T02:00:53;101370.50;;;-1.59;100.00
47738;BME280;33502;47.182;27.506;2023-03-01T02:03:31;101365.19;;;-1.63;100.00
47738;BME280;33502;47.182;27.506;2023-03-01T02:08:52;101355.38;;;-1.75;100.00
47738;BME280;33502;47.182;27.506;2023-03-01T02:11:19;101355.25;;;-1.81;100.00
47738;BME280;33502;47.182;27.506;2023-03-01T02:13:47;101351.56;;;-1.89;100.00
47738;BME280;33502;47.182;27.506;2023-03-01T02:16:15;101356.53;;;-1.99;100.00
47738;BME280;33502;47.182;27.506;2023-03-01T02:18:43;101354.59;;;-2.07;100.00
47738;BME280;33502;47.182;27.506;2023-03-01T02:21:34;101354.28;;;-2.18;100.00
47738;BME280;33502;47.182;27.506;2023-03-01T02:24:11;101355.00;;;-2.24;100.00
47738;BME280;33502;47.182;27.506;2023-03-01T02:26:47;101360.91;;;-2.29;100.00
47738;BME280;33502;47.182;27.506;2023-03-01T02:29:14;101350.31;;;-2.39;100.00
47738;BME280;33502;47.182;27.506;2023-03-01T02:31:40;101350.34;;;-2.37;100.00
47738;BME280;33502;47.182;27.506;2023-03-01T02:34:16;101344.22;;;-2.39;100.00
47738;BME280;33502;47.182;27.506;2023-03-01T02:36:55;101351.19;;;-2.38;100.00
47738;BME280;33502;47.182;27.506;2023-03-01T02:39:26;101349.59;;;-2.33;100.00
47738;BME280;33502;47.182;27.506;2023-03-01T02:41:54;101360.00;;;-2.31;100.00
47738;BME280;33502;47.182;27.506;2023-03-01T02:44:22;101356.69;;;-2.26;100.00
47738;BME280;33502;47.182;27.506;2023-03-01T02:46:55;101357.66;;;-2.22;100.00
47738;BME280;33502;47.182;27.506;2023-03-01T02:49:29;101355.31;;;-2.13;100.00
47738;BME280;33502;47.182;27.506;2023-03-01T02:52:23;101347.81;;;-2.01;100.00
47738;BME280;33502;47.182;27.506;2023-03-01T02:55:24;101348.09;;;-1.90;100.00
47738;BME280;33502;47.182;27.506;2023-03-01T02:57:50;101345.63;;;-1.84;100.00
47738;BME280;33502;47.182;27.506;2023-03-01T03:00:21;101353.59;;;-1.76;100.00
47738;BME280;33502;47.182;27.506;2023-03-01T03:02:49;101352.88;;;-1.70;100.00
47738;BME280;33502;47.182;27.506;2023-03-01T03:05:29;101339.88;;;-1.72;100.00
47738;BME280;33502;47.182;27.506;2023-03-01T03:07:58;101345.06;;;-1.72;100.00
47738;BME280;33502;47.182;27.506;2023-03-01T03:10:28;101338.03;;;-1.76;100.00
47738;BME280;33502;47.182;27.506;2023-03-01T03:12:57;101339.69;;;-1.80;100.00
47738;BME280;33502;47.182;27.506;2023-03-01T03:15:24;101345.72;;;-1.81;100.00
47738;BME280;33502;47.182;27.506;2023-03-01T03:17:51;101344.84;;;-1.81;100.00
47738;BME280;33502;47.182;27.506;2023-03-01T03:20:20;101338.75;;;-1.82;100.00
47738;BME280;33502;47.182;27.506;2023-03-01T03:22:51;101342.28;;;-1.80;100.00
47738;BME280;33502;47.182;27.506;2023-03-01T03:25:18;101331.91;;;-1.78;100.00
47738;BME280;33502;47.182;27.506;2023-03-01T03:27:46;101335.44;;;-1.76;100.00
47738;BME280;33502;47.182;27.506;2023-03-01T03:30:15;101325.03;;;-1.76;100.00
47738;BME280;33502;47.182;27.506;2023-03-01T03:32:43;101331.13;;;-1.75;100.00
47738;BME280;33502;47.182;27.506;2023-03-01T03:35:23;101325.94;;;-1.75;100.00
47738;BME280;33502;47.182;27.506;2023-03-01T03:37:50;101331.13;;;-1.75;100.00
47738;BME280;33502;47.182;27.506;2023-03-01T03:40:39;101329.41;;;-1.75;100.00
47738;BME280;33502;47.182;27.506;2023-03-01T03:43:08;101331.13;;;-1.75;100.00
47738;BME280;33502;47.182;27.506;2023-03-01T03:45:35;101331.97;;;-1.77;100.00
47738;BME280;33502;47.182;27.506;2023-03-01T03:48:02;101330.19;;;-1.79;100.00
47738;BME280;33502;47.182;27.506;2023-03-01T03:50:29;101333.56;;;-1.82;100.00
47738;BME280;33502;47.182;27.506;2023-03-01T03:52:54;101334.28;;;-1.87;100.00
47738;BME280;33502;47.182;27.506;2023-03-01T03:55:20;101333.38;;;-1.91;100.00
47738;BME280;33502;47.182;27.506;2023-03-01T03:57:47;101329.88;;;-1.91;100.00
47738;BME280;33502;47.182;27.506;2023-03-01T04:00:19;101324.66;;;-1.93;100.00
47738;BME280;33502;47.182;27.506;2023-03-01T04:02:46;101325.53;;;-1.92;100.00
47738;BME280;33502;47.182;27.506;2023-03-01T04:05:14;101324.50;;;-1.99;100.00
47738;BME280;33502;47.182;27.506;2023-03-01T04:07:41;101317.25;;;-2.12;100.00
47738;BME280;33502;47.182;27.506;2023-03-01T04:10:17;101310.91;;;-2.24;100.00
47738;BME280;33502;47.182;27.506;2023-03-01T04:12:43;101304.59;;;-2.35;100.00
47738;BME280;33502;47.182;27.506;2023-03-01T04:15:11;101300.84;;;-2.45;100.00
47738;BME280;33502;47.182;27.506;2023-03-01T04:17:41;101308.41;;;-2.54;100.00
47738;BME280;33502;47.182;27.506;2023-03-01T04:20:13;101309.13;;;-2.60;100.00
47738;BME280;33502;47.182;27.506;2023-03-01T04:22:40;101307.28;;;-2.64;100.00
47738;BME280;33502;47.182;27.506;2023-03-01T04:25:07;101310.56;;;-2.71;100.00
47738;BME280;33502;47.182;27.506;2023-03-01T04:27:34;101303.44;;;-2.78;100.00
47738;BME280;33502;47.182;27.506;2023-03-01T04:30:00;101308.47;;;-2.84;100.00
47738;BME280;33502;47.182;27.506;2023-03-01T04:32:26;101312.59;;;-2.91;100.00
47738;BME280;33502;47.182;27.506;2023-03-01T04:34:52;101310.69;;;-2.97;100.00
47738;BME280;33502;47.182;27.506;2023-03-01T04:37:18;101308.03;;;-3.00;100.00
47738;BME280;33502;47.182;27.506;2023-03-01T04:39:44;101320.91;;;-3.03;100.00
47738;BME280;33502;47.182;27.506;2023-03-01T04:42:14;101318.13;;;-3.09;100.00
47738;BME280;33502;47.182;27.506;2023-03-01T04:44:40;101320.56;;;-3.13;100.00
47738;BME280;33502;47.182;27.506;2023-03-01T04:47:06;101329.03;;;-3.19;100.00
47738;BME280;33502;47.182;27.506;2023-03-01T04:49:31;101327.25;;;-3.22;100.00
47738;BME280;33502;47.182;27.506;2023-03-01T04:51:57;101326.44;;;-3.21;100.00
47738;BME280;33502;47.182;27.506;2023-03-01T04:54:33;101335.94;;;-3.20;100.00
47738;BME280;33502;47.182;27.506;2023-03-01T04:57:00;101333.41;;;-3.18;100.00
47738;BME280;33502;47.182;27.506;2023-03-01T04:59:27;101334.44;;;-3.11;100.00
47738;BME280;33502;47.182;27.506;2023-03-01T05:01:54;101339.72;;;-3.08;100.00
47738;BME280;33502;47.182;27.506;2023-03-01T05:04:25;101338.94;;;-3.06;100.00
47738;BME280;33502;47.182;27.506;2023-03-01T05:06:51;101342.53;;;-3.01;100.00
47738;BME280;33502;47.182;27.506;2023-03-01T05:09:19;101354.81;;;-2.95;100.00
47738;BME280;33502;47.182;27.506;2023-03-01T05:11:44;101353.28;;;-2.88;100.00
47738;BME280;33502;47.182;27.506;2023-03-01T05:14:11;101350.16;;;-2.77;100.00
47738;BME280;33502;47.182;27.506;2023-03-01T05:16:37;101348.94;;;-2.58;100.00
47738;BME280;33502;47.182;27.506;2023-03-01T05:19:03;101348.09;;;-2.25;100.00
47738;BME280;33502;47.182;27.506;2023-03-01T05:21:42;101351.91;;;-2.10;100.00
47738;BME280;33502;47.182;27.506;2023-03-01T05:24:27;101353.56;;;-2.14;100.00
47738;BME280;33502;47.182;27.506;2023-03-01T05:26:53;101355.00;;;-2.25;100.00
47738;BME280;33502;47.182;27.506;2023-03-01T05:29:20;101357.22;;;-2.39;100.00
47738;BME280;33502;47.182;27.506;2023-03-01T05:31:52;101359.03;;;-2.37;100.00
47738;BME280;33502;47.182;27.506;2023-03-01T05:34:22;101353.56;;;-1.79;100.00
47738;BME280;33502;47.182;27.506;2023-03-01T05:36:48;101345.31;;;-1.23;100.00
47738;BME280;33502;47.182;27.506;2023-03-01T05:39:23;101342.94;;;-1.12;100.00
47738;BME280;33502;47.182;27.506;2023-03-01T05:41:57;101349.28;;;-0.98;100.00
47738;BME280;33502;47.182;27.506;2023-03-01T05:44:24;101355.56;;;-0.46;100.00
47738;BME280;33502;47.182;27.506;2023-03-01T05:46:51;101352.34;;;-0.31;100.00
47738;BME280;33502;47.182;27.506;2023-03-01T05:49:17;101354.03;;;-0.34;100.00
47738;BME280;33502;47.182;27.506;2023-03-01T05:51:48;101362.72;;;-0.34;100.00
47738;BME280;33502;47.182;27.506;2023-03-01T05:54:14;101373.47;;;-0.61;100.00
47738;BME280;33502;47.182;27.506;2023-03-01T05:56:40;101375.41;;;-0.92;100.00
47738;BME280;33502;47.182;27.506;2023-03-01T05:59:06;101372.38;;;-1.13;100.00
47738;BME280;33502;47.182;27.506;2023-03-01T06:01:33;101375.63;;;-1.24;100.00
47738;BME280;33502;47.182;27.506;2023-03-01T06:03:59;101377.22;;;-1.29;100.00
47738;BME280;33502;47.182;27.506;2023-03-01T06:06:25;101364.44;;;-1.20;100.00
47738;BME280;33502;47.182;27.506;2023-03-01T06:08:51;101365.88;;;-0.93;100.00
47738;BME280;33502;47.182;27.506;2023-03-01T06:11:18;101359.84;;;-0.90;100.00
47738;BME280;33502;47.182;27.506;2023-03-01T06:13:44;101359.88;;;-0.89;100.00
47738;BME280;33502;47.182;27.506;2023-03-01T06:16:10;101360.91;;;-0.81;100.00
47738;BME280;33502;47.182;27.506;2023-03-01T06:18:37;101362.88;;;-0.70;100.00
47738;BME280;33502;47.182;27.506;2023-03-01T06:21:04;101362.13;;;-0.65;100.00
47738;BME280;33502;47.182;27.506;2023-03-01T06:23:30;101356.84;;;-0.68;100.00
47738;BME280;33502;47.182;27.506;2023-03-01T06:25:56;101370.00;;;-0.60;100.00
47738;BME280;33502;47.182;27.506;2023-03-01T06:28:21;101361.06;;;-0.27;100.00
47738;BME280;33502;47.182;27.506;2023-03-01T06:30:49;101364.72;;;-0.17;100.00
47738;BME280;33502;47.182;27.506;2023-03-01T06:33:15;101364.44;;;-0.34;100.00
47738;BME280;33502;47.182;27.506;2023-03-01T06:35:41;101369.03;;;-0.67;100.00
47738;BME280;33502;47.182;27.506;2023-03-01T06:38:06;101364.56;;;-0.72;100.00
47738;BME280;33502;47.182;27.506;2023-03-01T06:40:32;101370.66;;;-0.72;100.00
47738;BME280;33502;47.182;27.506;2023-03-01T06:43:00;101361.97;;;-0.71;100.00
47738;BME280;33502;47.182;27.506;2023-03-01T06:45:26;101365.66;;;-0.60;100.00
47738;BME280;33502;47.182;27.506;2023-03-01T06:47:52;101359.06;;;-0.42;100.00
47738;BME280;33502;47.182;27.506;2023-03-01T06:50:18;101362.38;;;-0.51;100.00
47738;BME280;33502;47.182;27.506;2023-03-01T06:52:45;101367.38;;;-0.62;100.00
47738;BME280;33502;47.182;27.506;2023-03-01T06:55:12;101356.78;;;-0.71;100.00
47738;BME280;33502;47.182;27.506;2023-03-01T06:57:38;101360.91;;;-0.81;100.00
47738;BME280;33502;47.182;27.506;2023-03-01T07:00:05;101360.63;;;-0.94;100.00
47738;BME280;33502;47.182;27.506;2023-03-01T07:02:31;101363.16;;;-0.98;100.00
47738;BME280;33502;47.182;27.506;2023-03-01T07:04:57;101365.97;;;-0.88;100.00
47738;BME280;33502;47.182;27.506;2023-03-01T07:07:23;101357.44;;;-0.81;100.00
47738;BME280;33502;47.182;27.506;2023-03-01T07:09:49;101355.97;;;-0.68;100.00
47738;BME280;33502;47.182;27.506;2023-03-01T07:12:15;101357.03;;;-0.58;100.00
47738;BME280;33502;47.182;27.506;2023-03-01T07:14:41;101359.66;;;-0.55;100.00
47738;BME280;33502;47.182;27.506;2023-03-01T07:17:09;101346.91;;;-0.43;100.00
47738;BME280;33502;47.182;27.506;2023-03-01T07:19:34;101348.66;;;-0.42;100.00
47738;BME280;33502;47.182;27.506;2023-03-01T07:22:00;101347.69;;;-0.49;100.00
47738;BME280;33502;47.182;27.506;2023-03-01T07:24:26;101347.69;;;-0.49;100.00
47738;BME280;33502;47.182;27.506;2023-03-01T07:26:52;101355.69;;;-0.38;100.00
47738;BME280;33502;47.182;27.506;2023-03-01T07:29:19;101347.03;;;-0.37;100.00
47738;BME280;33502;47.182;27.506;2023-03-01T07:31:45;101338.34;;;-0.37;100.00
47738;BME280;33502;47.182;27.506;2023-03-01T07:34:11;101340.72;;;-0.50;100.00
47738;BME280;33502;47.182;27.506;2023-03-01T07:36:37;101336.69;;;-0.34;100.00
47738;BME280;33502;47.182;27.506;2023-03-01T07:39:04;101334.06;;;0.16;100.00
47738;BME280;33502;47.182;27.506;2023-03-01T07:41:30;101331.88;;;0.46;100.00
47738;BME280;33502;47.182;27.506;2023-03-01T07:43:57;101327.53;;;0.43;100.00
47738;BME280;33502;47.182;27.506;2023-03-01T07:46:22;101318.69;;;1.77;100.00
47738;BME280;33502;47.182;27.506;2023-03-01T07:48:48;101327.94;;;2.45;100.00
47738;BME280;33502;47.182;27.506;2023-03-01T07:51:14;101333.47;;;2.93;100.00
47738;BME280;33502;47.182;27.506;2023-03-01T07:53:40;101325.59;;;2.91;100.00
47738;BME280;33502;47.182;27.506;2023-03-01T07:56:11;101330.72;;;2.68;100.00
47738;BME280;33502;47.182;27.506;2023-03-01T07:58:38;101335.84;;;2.58;100.00
47738;BME280;33502;47.182;27.506;2023-03-01T08:01:06;101330.66;;;2.56;100.00
47738;BME280;33502;47.182;27.506;2023-03-01T08:03:33;101323.72;;;2.69;100.00
47738;BME280;33502;47.182;27.506;2023-03-01T08:06:08;101319.72;;;3.65;100.00
47738;BME280;33502;47.182;27.506;2023-03-01T08:08:35;101305.63;;;4.83;100.00
47738;BME280;33502;47.182;27.506;2023-03-01T08:11:02;101302.91;;;5.10;100.00
47738;BME280;33502;47.182;27.506;2023-03-01T08:13:28;101301.38;;;4.29;100.00
47738;BME280;33502;47.182;27.506;2023-03-01T08:15:59;101302.31;;;3.98;100.00
47738;BME280;33502;47.182;27.506;2023-03-01T08:18:25;101301.41;;;3.71;100.00
47738;BME280;33502;47.182;27.506;2023-03-01T08:20:51;101298.78;;;4.09;100.00
47738;BME280;33502;47.182;27.506;2023-03-01T08:23:17;101291.78;;;4.33;100.00
47738;BME280;33502;47.182;27.506;2023-03-01T08:25:42;101297.91;;;3.83;100.00
47738;BME280;33502;47.182;27.506;2023-03-01T08:28:08;101286.56;;;3.85;100.00
47738;BME280;33502;47.182;27.506;2023-03-01T08:30:34;101271.84;;;6.72;100.00
47738;BME280;33502;47.182;27.506;2023-03-01T08:33:00;101275.44;;;8.88;96.08
47738;BME280;33502;47.182;27.506;2023-03-01T08:35:25;101272.78;;;9.30;85.59
47738;BME280;33502;47.182;27.506;2023-03-01T08:37:51;101269.41;;;9.25;84.75
47738;BME280;33502;47.182;27.506;2023-03-01T08:40:17;101279.22;;;8.75;88.44
47738;BME280;33502;47.182;27.506;2023-03-01T08:42:43;101266.03;;;7.74;94.19
47738;BME280;33502;47.182;27.506;2023-03-01T08:45:09;101265.06;;;6.51;100.00
47738;BME280;33502;47.182;27.506;2023-03-01T08:47:36;101269.31;;;6.64;100.00
47738;BME280;33502;47.182;27.506;2023-03-01T08:50:03;101264.28;;;7.17;98.04
47738;BME280;33502;47.182;27.506;2023-03-01T08:52:29;101261.66;;;6.41;100.00
47738;BME280;33502;47.182;27.506;2023-03-01T08:54:55;101258.06;;;6.50;100.00
47738;BME280;33502;47.182;27.506;2023-03-01T08:57:22;101254.53;;;7.22;100.00
47738;BME280;33502;47.182;27.506;2023-03-01T08:59:47;101253.50;;;7.34;98.01
47738;BME280;33502;47.182;27.506;2023-03-01T09:02:16;101250.59;;;6.89;100.00
47738;BME280;33502;47.182;27.506;2023-03-01T09:04:42;101248.53;;;7.11;97.65
47738;BME280;33502;47.182;27.506;2023-03-01T09:07:08;101242.00;;;7.94;92.24
47738;BME280;33502;47.182;27.506;2023-03-01T09:09:35;101246.34;;;7.96;92.21
47738;BME280;33502;47.182;27.506;2023-03-01T09:12:01;101249.69;;;8.56;88.16
47738;BME280;33502;47.182;27.506;2023-03-01T09:14:27;101244.91;;;7.77;87.96
47738;BME280;33502;47.182;27.506;2023-03-01T09:16:53;101244.44;;;7.53;91.21
47738;BME280;33502;47.182;27.506;2023-03-01T09:19:19;101242.56;;;8.13;91.64
47738;BME280;33502;47.182;27.506;2023-03-01T09:21:44;101238.25;;;8.07;90.02
47738;BME280;33502;47.182;27.506;2023-03-01T09:24:21;101238.88;;;8.21;88.31
47738;BME280;33502;47.182;27.506;2023-03-01T09:26:48;101238.41;;;7.99;87.47
47738;BME280;33502;47.182;27.506;2023-03-01T09:29:15;101239.00;;;8.14;87.63
47738;BME280;33502;47.182;27.506;2023-03-01T09:31:42;101233.50;;;8.28;86.96
47738;BME280;33502;47.182;27.506;2023-03-01T09:34:08;101228.84;;;7.91;89.33
47738;BME280;33502;47.182;27.506;2023-03-01T09:36:34;101231.66;;;7.25;90.38
47738;BME280;33502;47.182;27.506;2023-03-01T09:39:01;101229.22;;;7.71;91.92
47738;BME280;33502;47.182;27.506;2023-03-01T09:41:47;101234.16;;;7.35;91.67
47738;BME280;33502;47.182;27.506;2023-03-01T09:46:56;101238.19;;;6.21;99.18
47738;BME280;33502;47.182;27.506;2023-03-01T09:49:25;101235.06;;;6.67;99.32
47738;BME280;33502;47.182;27.506;2023-03-01T09:52:03;101237.84;;;6.55;100.00
47738;BME280;33502;47.182;27.506;2023-03-01T09:54:30;101237.16;;;7.09;97.40
47738;BME280;33502;47.182;27.506;2023-03-01T09:58:06;101226.59;;;7.69;92.59
47738;BME280;33502;47.182;27.506;2023-03-01T10:02:56;101220.75;;;7.49;93.34
47738;BME280;33502;47.182;27.506;2023-03-01T10:05:39;101219.50;;;7.15;95.50
47738;BME280;33502;47.182;27.506;2023-03-01T10:10:44;101220.44;;;6.41;100.00
47738;BME280;33502;47.182;27.506;2023-03-01T10:13:33;101219.13;;;5.94;100.00
47738;BME280;33502;47.182;27.506;2023-03-01T10:19:02;101228.72;;;4.76;100.00
47738;BME280;33502;47.182;27.506;2023-03-01T10:21:29;101214.56;;;5.05;100.00
47738;BME280;33502;47.182;27.506;2023-03-01T10:24:08;101210.69;;;5.58;100.00
47738;BME280;33502;47.182;27.506;2023-03-01T10:26:38;101224.31;;;6.06;100.00
47738;BME280;33502;47.182;27.506;2023-03-01T10:29:11;101217.81;;;6.43;100.00
47738;BME280;33502;47.182;27.506;2023-03-01T10:31:55;101209.50;;;5.98;100.00
47738;BME280;33502;47.182;27.506;2023-03-01T10:34:29;101202.88;;;5.49;100.00
47738;BME280;33502;47.182;27.506;2023-03-01T10:36:58;101203.81;;;5.45;100.00
47738;BME280;33502;47.182;27.506;2023-03-01T10:39:26;101202.25;;;5.16;100.00
47738;BME280;33502;47.182;27.506;2023-03-01T10:41:59;101198.00;;;4.89;100.00
47738;BME280;33502;47.182;27.506;2023-03-01T10:44:44;101198.09;;;4.78;100.00
47738;BME280;33502;47.182;27.506;2023-03-01T10:47:19;101203.34;;;4.75;100.00
47738;BME280;33502;47.182;27.506;2023-03-01T10:50:05;101192.94;;;4.50;100.00
47738;BME280;33502;47.182;27.506;2023-03-01T10:52:33;101193.88;;;4.28;100.00
47738;BME280;33502;47.182;27.506;2023-03-01T10:57:43;101188.75;;;3.94;100.00
47738;BME280;33502;47.182;27.506;2023-03-01T11:02:35;101171.19;;;4.15;100.00
47738;BME280;33502;47.182;27.506;2023-03-01T11:05:16;101167.66;;;4.29;100.00
47738;BME280;33502;47.182;27.506;2023-03-01T11:07:53;101159.81;;;4.31;100.00
47738;BME280;33502;47.182;27.506;2023-03-01T11:10:22;101162.44;;;4.22;100.00
47738;BME280;33502;47.182;27.506;2023-03-01T11:12:48;101168.63;;;4.13;100.00
47738;BME280;33502;47.182;27.506;2023-03-01T11:15:27;101169.44;;;4.29;100.00
47738;BME280;33502;47.182;27.506;2023-03-01T11:17:54;101165.03;;;4.31;100.00
47738;BME280;33502;47.182;27.506;2023-03-01T11:22:54;101154.63;;;4.19;100.00
47738;BME280;33502;47.182;27.506;2023-03-01T11:25:25;101165.13;;;4.08;100.00
47738;BME280;33502;47.182;27.506;2023-03-01T11:27:53;101156.41;;;3.86;100.00
47738;BME280;33502;47.182;27.506;2023-03-01T11:33:08;101159.97;;;3.62;100.00
47738;BME280;33502;47.182;27.506;2023-03-01T11:35:49;101163.44;;;3.70;100.00
47738;BME280;33502;47.182;27.506;2023-03-01T11:38:21;101158.22;;;3.73;100.00
47738;BME280;33502;47.182;27.506;2023-03-01T11:41:06;101166.06;;;3.73;100.00
47738;BME280;33502;47.182;27.506;2023-03-01T11:43:48;101156.44;;;3.63;100.00
47738;BME280;33502;47.182;27.506;2023-03-01T12:25:20;101118.88;;;3.84;100.00
47738;BME280;33502;47.182;27.506;2023-03-01T12:30:52;101109.22;;;3.93;100.00
47738;BME280;33502;47.182;27.506;2023-03-01T12:44:35;101115.19;;;4.37;100.00
47738;BME280;33502;47.182;27.506;2023-03-01T12:50:26;101103.09;;;5.46;100.00
47738;BME280;33502;47.182;27.506;2023-03-01T12:52:56;101106.44;;;6.42;100.00
47738;BME280;33502;47.182;27.506;2023-03-01T12:55:59;101106.03;;;6.72;100.00
47738;BME280;33502;47.182;27.506;2023-03-01T12:58:32;101106.63;;;6.27;100.00
47738;BME280;33502;47.182;27.506;2023-03-01T13:09:11;101097.09;;;6.83;94.62
47738;BME280;33502;47.182;27.506;2023-03-01T13:11:42;101081.47;;;7.27;94.73
47738;BME280;33502;47.182;27.506;2023-03-01T13:16:47;101090.38;;;7.18;91.80
47738;BME280;33502;47.182;27.506;2023-03-01T13:19:21;101091.72;;;7.44;91.55
47738;BME280;33502;47.182;27.506;2023-03-01T13:21:49;101089.84;;;7.51;93.41
47738;BME280;33502;47.182;27.506;2023-03-01T13:24:40;101095.16;;;6.95;91.62
47738;BME280;33502;47.182;27.506;2023-03-01T13:30:38;101087.03;;;7.60;91.02
47738;BME280;33502;47.182;27.506;2023-03-01T13:35:51;101077.94;;;6.74;94.25
47738;BME280;33502;47.182;27.506;2023-03-01T13:41:03;101078.34;;;6.44;100.00
47738;BME280;33502;47.182;27.506;2023-03-01T13:43:37;101086.78;;;6.68;98.25
47738;BME280;33502;47.182;27.506;2023-03-01T13:46:23;101091.38;;;6.54;97.02
47738;BME280;33502;47.182;27.506;2023-03-01T13:48:52;101090.56;;;6.49;97.58
47738;BME280;33502;47.182;27.506;2023-03-01T13:51:25;101079.47;;;6.89;94.71
47738;BME280;33502;47.182;27.506;2023-03-01T13:53:52;101072.50;;;6.84;94.50
47738;BME280;33502;47.182;27.506;2023-03-01T13:56:23;101083.41;;;6.60;96.93
47738;BME280;33502;47.182;27.506;2023-03-01T13:58:58;101076.13;;;6.14;100.00
47738;BME280;33502;47.182;27.506;2023-03-01T14:01:30;101076.97;;;6.16;100.00
47738;BME280;33502;47.182;27.506;2023-03-01T14:03:57;101064.13;;;6.59;100.00
47738;BME280;33502;47.182;27.506;2023-03-01T14:06:28;101065.91;;;6.57;99.03
47738;BME280;33502;47.182;27.506;2023-03-01T14:11:57;101059.63;;;6.64;98.83
47738;BME280;33502;47.182;27.506;2023-03-01T14:17:12;101065.00;;;5.88;100.00
47738;BME280;33502;47.182;27.506;2023-03-01T14:19:43;101067.63;;;5.88;100.00
47738;BME280;33502;47.182;27.506;2023-03-01T14:22:26;101071.16;;;5.86;99.83
47738;BME280;33502;47.182;27.506;2023-03-01T14:25:05;101072.84;;;5.90;100.00
47738;BME280;33502;47.182;27.506;2023-03-01T14:27:39;101072.97;;;5.81;100.00
47738;BME280;33502;47.182;27.506;2023-03-01T14:30:24;101072.94;;;5.82;100.00
47738;BME280;33502;47.182;27.506;2023-03-01T14:32:58;101057.25;;;5.76;100.00
47738;BME280;33502;47.182;27.506;2023-03-01T14:35:33;101061.72;;;5.66;100.00